createdAt,value
2017-07-16T00:00:36.936Z,9.90
2017-07-16T00:03:04.485Z,8.60
2017-07-16T00:05:32.044Z,7.63
2017-07-16T00:07:59.609Z,9.30
2017-07-16T00:10:27.167Z,11.77
2017-07-16T00:12:54.626Z,9.83
2017-07-16T00:15:22.183Z,10.37
2017-07-16T00:17:49.740Z,11.87
2017-07-16T00:20:17.295Z,12.87
2017-07-16T00:22:44.844Z,13.27
2017-07-16T00:25:12.451Z,8.60
2017-07-16T00:27:39.979Z,10.50
2017-07-16T00:30:07.522Z,8.53
2017-07-16T00:32:34.990Z,8.57
2017-07-16T00:35:02.441Z,9.60
2017-07-16T00:37:30.005Z,9.37
2017-07-16T00:39:57.566Z,9.70
2017-07-16T00:42:25.119Z,9.27
2017-07-16T00:44:52.578Z,9.67
2017-07-16T00:47:20.855Z,12.13
2017-07-16T00:49:48.414Z,8.23
2017-07-16T00:52:15.965Z,9.87
2017-07-16T00:54:43.520Z,9.10
2017-07-16T00:57:11.076Z,8.80
2017-07-16T00:59:38.533Z,8.80
2017-07-16T01:02:06.003Z,12.40
2017-07-16T01:04:33.557Z,15.70
2017-07-16T01:07:01.013Z,10.53
2017-07-16T01:09:28.480Z,8.60
2017-07-16T01:11:56.030Z,10.73
2017-07-16T01:14:23.589Z,9.90
2017-07-16T01:16:51.156Z,8.80
2017-07-16T01:19:19.429Z,7.70
2017-07-16T01:21:47.042Z,13.73
2017-07-16T01:24:14.545Z,8.10
2017-07-16T01:26:42.010Z,12.00
2017-07-16T01:29:10.274Z,10.07
2017-07-16T01:31:37.729Z,8.13
2017-07-16T01:34:05.289Z,8.67
2017-07-16T01:36:32.837Z,8.93
2017-07-16T01:39:00.297Z,9.13
2017-07-16T01:41:27.766Z,8.47
2017-07-16T01:43:55.361Z,9.00
2017-07-16T01:46:22.882Z,10.67
2017-07-16T01:48:50.441Z,8.70
2017-07-16T01:51:18.054Z,9.00
2017-07-16T01:53:45.520Z,10.50
2017-07-16T01:56:12.994Z,9.23
2017-07-16T01:58:40.461Z,9.40
2017-07-16T02:01:07.978Z,8.53
2017-07-16T02:03:35.473Z,8.83
2017-07-16T02:06:03.037Z,10.70
2017-07-16T02:08:30.600Z,12.90
2017-07-16T02:10:58.154Z,9.90
2017-07-16T02:13:25.718Z,10.90
2017-07-16T02:15:53.271Z,9.53
2017-07-16T02:18:20.736Z,11.77
2017-07-16T02:20:48.345Z,10.80
2017-07-16T02:23:15.853Z,8.57
2017-07-16T02:25:43.397Z,8.97
2017-07-16T02:28:10.952Z,9.67
2017-07-16T02:30:38.450Z,8.80
2017-07-16T02:33:05.989Z,9.90
2017-07-16T02:35:33.450Z,11.03
2017-07-16T02:38:01.709Z,9.97
2017-07-16T02:40:29.276Z,10.90
2017-07-16T02:42:56.825Z,9.17
2017-07-16T02:45:24.289Z,17.03
2017-07-16T02:47:51.851Z,9.80
2017-07-16T02:50:19.461Z,7.77
2017-07-16T02:52:46.931Z,8.97
2017-07-16T02:55:14.424Z,10.10
2017-07-16T02:57:42.697Z,10.40
2017-07-16T03:00:10.254Z,9.90
2017-07-16T03:02:37.718Z,9.93
2017-07-16T03:05:06.046Z,11.30
2017-07-16T03:07:33.517Z,14.27
2017-07-16T03:10:00.982Z,8.77
2017-07-16T03:12:28.447Z,11.30
2017-07-16T03:14:56.009Z,13.67
2017-07-16T03:17:23.574Z,9.43
2017-07-16T03:19:51.034Z,9.33
2017-07-16T03:22:18.570Z,8.10
2017-07-16T03:24:46.030Z,12.27
2017-07-16T03:27:13.507Z,9.30
2017-07-16T03:29:41.768Z,11.50
2017-07-16T03:32:09.331Z,20.00
2017-07-16T03:34:36.894Z,9.70
2017-07-16T03:37:04.451Z,13.20
2017-07-16T03:39:31.919Z,9.03
2017-07-16T03:42:00.149Z,10.80
2017-07-16T03:44:27.641Z,10.63
2017-07-16T03:46:55.198Z,9.00
2017-07-16T03:49:22.742Z,9.57
2017-07-16T03:51:50.197Z,13.17
2017-07-16T03:54:17.670Z,8.93
2017-07-16T03:56:45.138Z,12.80
2017-07-16T03:59:13.365Z,10.70
2017-07-16T04:01:40.844Z,10.53
2017-07-16T04:04:08.305Z,11.17
2017-07-16T04:06:35.781Z,10.03
2017-07-16T04:09:04.013Z,18.03
2017-07-16T04:11:31.487Z,9.07
2017-07-16T04:13:58.961Z,12.27
2017-07-16T04:16:26.426Z,19.60
2017-07-16T04:18:54.660Z,11.50
2017-07-16T04:21:22.148Z,11.10
2017-07-16T04:23:49.609Z,8.77
2017-07-16T04:26:17.163Z,10.20
2017-07-16T04:28:44.625Z,11.57
2017-07-16T04:31:12.085Z,15.00
2017-07-16T04:33:40.319Z,11.93
2017-07-16T04:36:07.815Z,9.90
2017-07-16T04:38:35.366Z,10.50
2017-07-16T04:41:02.949Z,10.37
2017-07-16T04:43:30.425Z,9.93
2017-07-16T04:45:57.903Z,10.40
2017-07-16T04:48:25.365Z,11.00
2017-07-16T04:50:52.843Z,13.50
2017-07-16T04:53:20.413Z,13.70
2017-07-16T04:55:48.029Z,10.30
2017-07-16T04:58:15.538Z,11.03
2017-07-16T05:00:43.094Z,11.97
2017-07-16T05:03:10.650Z,11.13
2017-07-16T05:05:38.225Z,19.53
2017-07-16T05:08:06.495Z,14.73
2017-07-16T05:10:34.720Z,14.53
2017-07-16T05:13:02.182Z,8.73
2017-07-16T05:15:29.637Z,9.60
2017-07-16T05:17:57.307Z,9.33
2017-07-16T05:20:24.846Z,11.20
2017-07-16T05:22:52.311Z,9.63
2017-07-16T05:25:19.760Z,8.97
2017-07-16T05:27:47.230Z,8.17
2017-07-16T05:30:14.689Z,7.27
2017-07-16T05:32:43.103Z,11.27
2017-07-16T05:35:10.561Z,8.73
2017-07-16T05:37:38.834Z,7.40
2017-07-16T05:40:06.395Z,8.23
2017-07-16T05:42:33.880Z,7.30
2017-07-16T05:45:01.411Z,7.17
2017-07-16T05:47:28.880Z,7.57
2017-07-16T05:49:57.124Z,8.43
2017-07-16T05:52:24.681Z,8.33
2017-07-16T05:54:52.267Z,11.53
2017-07-16T05:57:20.543Z,10.77
2017-07-16T05:59:48.778Z,7.70
2017-07-16T06:02:16.267Z,8.40
2017-07-16T06:04:44.543Z,7.30
2017-07-16T06:07:12.100Z,7.33
2017-07-16T06:09:40.365Z,9.20
2017-07-16T06:12:07.937Z,8.80
2017-07-16T06:14:35.496Z,10.20
2017-07-16T06:17:03.041Z,10.50
2017-07-16T06:19:30.505Z,11.10
2017-07-16T06:21:58.059Z,6.30
2017-07-16T06:24:25.527Z,5.67
2017-07-16T06:26:54.322Z,7.93
2017-07-16T06:29:22.564Z,5.90
2017-07-16T06:31:50.143Z,6.63
2017-07-16T06:34:17.694Z,7.60
2017-07-16T06:36:45.259Z,9.67
2017-07-16T06:39:12.732Z,7.07
2017-07-16T06:41:40.962Z,4.47
2017-07-16T06:44:08.428Z,6.40
2017-07-16T06:46:36.011Z,5.70
2017-07-16T06:49:03.475Z,4.67
2017-07-16T06:51:31.702Z,4.67
2017-07-16T06:53:59.187Z,9.30
2017-07-16T06:56:26.747Z,6.17
2017-07-16T06:58:54.261Z,7.40
2017-07-16T07:01:21.775Z,7.60
2017-07-16T07:03:50.025Z,6.73
2017-07-16T07:06:17.586Z,5.87
2017-07-16T07:08:45.879Z,4.40
2017-07-16T07:11:13.345Z,6.57
2017-07-16T07:13:41.583Z,5.23
2017-07-16T07:16:09.075Z,5.03
2017-07-16T07:18:36.609Z,7.90
2017-07-16T07:21:04.079Z,5.23
2017-07-16T07:23:31.537Z,3.67
2017-07-16T07:25:58.998Z,3.93
2017-07-16T07:28:26.465Z,8.17
2017-07-16T07:30:54.701Z,4.47
2017-07-16T07:33:22.164Z,4.60
2017-07-16T07:35:49.625Z,6.67
2017-07-16T07:38:17.092Z,4.80
2017-07-16T07:40:44.642Z,4.27
2017-07-16T07:43:12.218Z,4.20
2017-07-16T07:45:40.492Z,4.20
2017-07-16T07:48:08.756Z,7.40
2017-07-16T07:50:36.213Z,6.00
2017-07-16T07:53:03.775Z,8.27
2017-07-16T07:55:31.716Z,5.77
2017-07-16T07:57:59.207Z,6.40
2017-07-16T08:00:26.670Z,4.90
2017-07-16T08:02:54.902Z,5.17
2017-07-16T08:05:22.399Z,3.30
2017-07-16T08:07:50.624Z,4.53
2017-07-16T08:10:18.121Z,2.90
2017-07-16T08:12:45.684Z,3.00
2017-07-16T08:15:13.164Z,3.80
2017-07-16T08:17:40.690Z,3.43
2017-07-16T08:20:08.159Z,2.70
2017-07-16T08:22:36.421Z,2.50
2017-07-16T08:25:03.971Z,5.90
2017-07-16T08:27:31.444Z,3.77
2017-07-16T08:29:58.904Z,3.00
2017-07-16T08:32:27.179Z,3.60
2017-07-16T08:34:54.774Z,3.63
2017-07-16T08:37:22.290Z,3.83
2017-07-16T08:39:49.846Z,4.30
2017-07-16T08:42:17.292Z,2.50
2017-07-16T08:44:44.918Z,2.30
2017-07-16T08:47:12.422Z,4.30
2017-07-16T08:49:39.966Z,2.77
2017-07-16T08:52:07.433Z,2.27
2017-07-16T08:54:34.989Z,2.60
2017-07-16T08:57:02.464Z,3.50
2017-07-16T08:59:30.686Z,2.07
2017-07-16T09:01:58.155Z,6.20
2017-07-16T09:04:25.601Z,4.53
2017-07-16T09:06:53.062Z,7.60
2017-07-16T09:09:20.535Z,6.00
2017-07-16T09:11:47.998Z,2.97
2017-07-16T09:14:15.449Z,4.73
2017-07-16T09:16:42.904Z,2.20
2017-07-16T09:19:10.379Z,2.77
2017-07-16T09:21:38.689Z,2.60
2017-07-16T09:24:06.159Z,3.70
2017-07-16T09:26:33.614Z,3.63
2017-07-16T09:29:01.087Z,5.90
2017-07-16T09:31:28.559Z,3.97
2017-07-16T09:33:56.024Z,2.50
2017-07-16T09:36:23.472Z,2.83
2017-07-16T09:38:50.947Z,6.50
2017-07-16T09:41:18.397Z,4.03
2017-07-16T09:43:45.862Z,4.33
2017-07-16T09:46:13.332Z,4.30
2017-07-16T09:48:41.561Z,3.77
2017-07-16T09:51:09.018Z,3.57
2017-07-16T09:53:36.495Z,3.93
2017-07-16T09:56:03.959Z,5.13
2017-07-16T09:58:31.415Z,4.97
2017-07-16T10:00:58.891Z,7.43
2017-07-16T10:03:27.109Z,3.43
2017-07-16T10:05:54.573Z,6.00
2017-07-16T10:08:22.021Z,4.60
2017-07-16T10:10:49.486Z,7.03
2017-07-16T10:13:16.966Z,3.07
2017-07-16T10:15:44.444Z,3.20
2017-07-16T10:18:12.686Z,4.20
2017-07-16T10:20:40.174Z,2.83
2017-07-16T10:23:08.426Z,3.13
2017-07-16T10:25:36.061Z,3.67
2017-07-16T10:28:03.871Z,2.93
2017-07-16T10:30:31.381Z,4.37
2017-07-16T10:32:58.859Z,2.93
2017-07-16T10:35:26.399Z,8.00
2017-07-16T10:37:53.948Z,5.83
2017-07-16T10:40:21.430Z,3.10
2017-07-16T10:42:48.927Z,2.00
2017-07-16T10:45:17.211Z,2.77
2017-07-16T10:47:44.759Z,3.40
2017-07-16T10:50:13.033Z,5.00
2017-07-16T10:52:41.278Z,3.50
2017-07-16T10:55:08.807Z,2.90
2017-07-16T10:57:36.284Z,2.17
2017-07-16T11:00:03.738Z,4.80
2017-07-16T11:02:31.232Z,5.03
2017-07-16T11:04:59.473Z,2.43
2017-07-16T11:07:26.943Z,5.43
2017-07-16T11:09:54.398Z,4.90
2017-07-16T11:12:21.843Z,2.20
2017-07-16T11:14:49.301Z,2.90
2017-07-16T11:17:16.749Z,2.50
2017-07-16T11:19:44.221Z,2.77
2017-07-16T11:22:11.673Z,2.40
2017-07-16T11:24:39.143Z,2.17
2017-07-16T11:27:06.602Z,5.70
2017-07-16T11:29:34.089Z,8.13
2017-07-16T11:32:01.555Z,2.67
2017-07-16T11:34:29.019Z,6.57
2017-07-16T11:36:56.556Z,4.43
2017-07-16T11:39:24.791Z,2.50
2017-07-16T11:41:52.245Z,4.60
2017-07-16T11:44:19.710Z,2.23
2017-07-16T11:46:47.179Z,11.53
2017-07-16T11:49:14.643Z,7.63
2017-07-16T11:51:42.887Z,7.03
2017-07-16T11:54:10.415Z,2.10
2017-07-16T11:56:37.876Z,2.60
2017-07-16T11:59:05.435Z,3.50
2017-07-16T12:01:32.952Z,1.83
2017-07-16T12:04:01.371Z,3.10
2017-07-16T12:06:28.869Z,1.77
2017-07-16T12:08:56.447Z,2.33
2017-07-16T12:11:24.726Z,1.57
2017-07-16T12:13:53.014Z,2.60
2017-07-16T12:16:20.553Z,2.30
2017-07-16T12:18:48.801Z,2.47
2017-07-16T12:21:16.281Z,2.57
2017-07-16T12:23:43.837Z,6.97
2017-07-16T12:26:11.399Z,7.40
2017-07-16T12:28:38.953Z,5.03
2017-07-16T12:31:06.433Z,11.10
2017-07-16T12:33:34.682Z,1.73
2017-07-16T12:36:02.232Z,4.57
2017-07-16T12:38:29.742Z,11.73
2017-07-16T12:40:57.604Z,10.73
2017-07-16T12:43:25.062Z,3.50
2017-07-16T12:45:52.518Z,6.17
2017-07-16T12:48:20.044Z,2.00
2017-07-16T12:50:47.653Z,3.00
2017-07-16T12:53:15.158Z,2.43
2017-07-16T12:55:42.719Z,2.07
2017-07-16T12:58:10.267Z,2.10
2017-07-16T13:00:37.725Z,3.00
2017-07-16T13:03:05.291Z,1.87
2017-07-16T13:05:32.858Z,5.20
2017-07-16T13:08:01.091Z,1.50
2017-07-16T13:10:28.769Z,4.70
2017-07-16T13:12:56.217Z,2.80
2017-07-16T13:15:23.684Z,1.40
2017-07-16T13:17:51.159Z,2.00
2017-07-16T13:20:18.712Z,4.10
2017-07-16T13:22:46.994Z,3.77
2017-07-16T13:25:14.551Z,2.50
2017-07-16T13:27:42.102Z,3.30
2017-07-16T13:30:09.563Z,4.20
2017-07-16T13:32:37.113Z,1.20
2017-07-16T13:35:04.693Z,1.27
2017-07-16T13:37:32.914Z,1.50
2017-07-16T13:40:00.463Z,3.93
2017-07-16T13:42:27.965Z,2.40
2017-07-16T13:44:55.512Z,2.70
2017-07-16T13:47:22.982Z,2.50
2017-07-16T13:49:50.549Z,3.47
2017-07-16T13:52:18.023Z,3.50
2017-07-16T13:54:45.766Z,8.63
2017-07-16T13:57:13.247Z,5.40
2017-07-16T13:59:40.711Z,2.50
2017-07-16T14:02:08.189Z,3.70
2017-07-16T14:04:35.655Z,2.77
2017-07-16T14:07:03.127Z,2.50
2017-07-16T14:09:30.702Z,4.03
2017-07-16T14:11:58.261Z,4.10
2017-07-16T14:14:25.827Z,4.10
2017-07-16T14:16:53.382Z,1.53
2017-07-16T14:19:20.847Z,2.03
2017-07-16T14:21:48.394Z,1.77
2017-07-16T14:24:15.953Z,3.07
2017-07-16T14:26:43.508Z,5.90
2017-07-16T14:29:10.997Z,3.13
2017-07-16T14:31:39.205Z,4.80
2017-07-16T14:34:06.675Z,1.93
2017-07-16T14:36:34.130Z,3.13
2017-07-16T14:39:01.612Z,3.70
2017-07-16T14:41:29.166Z,1.40
2017-07-16T14:43:56.730Z,2.90
2017-07-16T14:46:24.286Z,4.97
2017-07-16T14:48:51.745Z,1.50
2017-07-16T14:51:19.202Z,2.07
2017-07-16T14:53:46.757Z,1.60
2017-07-16T14:56:14.229Z,2.10
2017-07-16T14:58:42.510Z,1.67
2017-07-16T15:01:10.778Z,1.77
2017-07-16T15:03:38.231Z,2.40
2017-07-16T15:06:06.498Z,1.70
2017-07-16T15:08:33.963Z,1.83
2017-07-16T15:11:01.509Z,3.57
2017-07-16T15:13:28.970Z,2.53
2017-07-16T15:15:56.535Z,2.27
2017-07-16T15:18:24.077Z,4.10
2017-07-16T15:20:51.532Z,4.20
2017-07-16T15:23:18.998Z,2.20
2017-07-16T15:25:46.565Z,1.67
2017-07-16T15:28:14.027Z,2.67
2017-07-16T15:30:41.577Z,5.93
2017-07-16T15:33:09.039Z,1.97
2017-07-16T15:35:36.502Z,4.80
2017-07-16T15:38:04.784Z,2.20
2017-07-16T15:40:33.048Z,4.70
2017-07-16T15:43:00.605Z,3.33
2017-07-16T15:45:28.072Z,2.07
2017-07-16T15:47:56.325Z,2.10
2017-07-16T15:50:23.878Z,1.90
2017-07-16T15:52:51.446Z,3.27
2017-07-16T15:55:18.960Z,2.00
2017-07-16T15:57:46.461Z,4.83
2017-07-16T16:00:14.970Z,2.63
2017-07-16T16:02:43.213Z,5.77
2017-07-16T16:05:10.670Z,5.27
2017-07-16T16:07:38.229Z,4.20
2017-07-16T16:10:05.693Z,4.87
2017-07-16T16:12:33.153Z,2.77
2017-07-16T16:15:00.708Z,3.60
2017-07-16T16:17:28.262Z,2.63
2017-07-16T16:19:55.742Z,3.93
2017-07-16T16:22:24.002Z,3.07
2017-07-16T16:24:51.548Z,3.10
2017-07-16T16:27:19.007Z,5.87
2017-07-16T16:29:46.565Z,3.30
2017-07-16T16:32:14.035Z,10.63
2017-07-16T16:34:41.588Z,4.20
2017-07-16T16:37:09.151Z,3.20
2017-07-16T16:39:36.618Z,3.57
2017-07-16T16:42:04.877Z,5.03
2017-07-16T16:44:32.332Z,6.73
2017-07-16T16:46:59.798Z,5.80
2017-07-16T16:49:27.403Z,5.57
2017-07-16T16:51:54.962Z,3.80
2017-07-16T16:54:22.471Z,3.40
2017-07-16T16:56:50.019Z,5.33
2017-07-16T16:59:17.490Z,3.40
2017-07-16T17:01:45.035Z,3.90
2017-07-16T17:04:12.490Z,4.63
2017-07-16T17:06:40.054Z,5.20
2017-07-16T17:09:07.614Z,3.80
2017-07-16T17:11:35.074Z,4.43
2017-07-16T17:14:02.539Z,4.87
2017-07-16T17:16:30.766Z,4.30
2017-07-16T17:18:58.231Z,6.23
2017-07-16T17:21:25.676Z,5.47
2017-07-16T17:23:53.179Z,4.50
2017-07-16T17:26:20.735Z,4.47
2017-07-16T17:28:48.289Z,4.50
2017-07-16T17:31:15.851Z,6.13
2017-07-16T17:33:43.314Z,6.00
2017-07-16T17:36:11.550Z,10.13
2017-07-16T17:38:39.009Z,5.40
2017-07-16T17:41:06.501Z,9.47
2017-07-16T17:43:34.770Z,7.70
2017-07-16T17:46:02.331Z,9.40
2017-07-16T17:48:29.890Z,5.80
2017-07-16T17:50:57.441Z,7.83
2017-07-16T17:53:24.913Z,6.83
2017-07-16T17:55:53.179Z,6.60
2017-07-16T17:58:20.730Z,5.90
2017-07-16T18:00:48.246Z,7.73
2017-07-16T18:03:15.744Z,5.97
2017-07-16T18:05:43.320Z,5.97
2017-07-16T18:08:11.594Z,8.30
2017-07-16T18:10:39.060Z,5.37
2017-07-16T18:13:07.301Z,8.23
2017-07-16T18:15:34.883Z,10.60
2017-07-16T18:18:03.105Z,5.37
2017-07-16T18:20:30.569Z,11.20
2017-07-16T18:22:58.039Z,4.80
2017-07-16T18:25:25.524Z,4.97
2017-07-16T18:27:53.069Z,5.43
2017-07-16T18:30:20.637Z,4.17
2017-07-16T18:32:48.194Z,4.70
2017-07-16T18:35:15.659Z,6.50
2017-07-16T18:37:43.150Z,6.53
2017-07-16T18:40:10.691Z,5.63
2017-07-16T18:42:38.943Z,4.30
2017-07-16T18:45:06.505Z,6.97
2017-07-16T18:47:34.051Z,7.97
2017-07-16T18:50:01.634Z,4.63
2017-07-16T18:52:29.904Z,7.80
2017-07-16T18:54:58.157Z,7.70
2017-07-16T18:57:25.631Z,6.80
2017-07-16T18:59:53.171Z,5.37
2017-07-16T19:02:20.625Z,5.13
2017-07-16T19:04:48.104Z,5.03
2017-07-16T19:07:15.654Z,5.90
2017-07-16T19:09:43.213Z,13.40
2017-07-16T19:12:10.673Z,5.40
2017-07-16T19:14:38.205Z,5.90
2017-07-16T19:17:05.687Z,4.10
2017-07-16T19:19:33.268Z,6.00
2017-07-16T19:22:00.816Z,6.60
2017-07-16T19:24:29.079Z,4.93
2017-07-16T19:26:57.043Z,5.70
2017-07-16T19:29:24.599Z,9.23
2017-07-16T19:31:52.068Z,4.27
2017-07-16T19:34:19.535Z,5.23
2017-07-16T19:36:47.754Z,4.90
2017-07-16T19:39:15.226Z,5.80
2017-07-16T19:41:42.703Z,6.80
2017-07-16T19:44:10.220Z,4.20
2017-07-16T19:46:37.667Z,9.23
2017-07-16T19:49:05.187Z,6.13
2017-07-16T19:51:33.413Z,4.80
2017-07-16T19:54:00.936Z,4.17
2017-07-16T19:56:28.529Z,8.53
2017-07-16T19:58:57.097Z,10.73
2017-07-16T20:01:26.816Z,5.60
2017-07-16T20:03:55.151Z,9.50
2017-07-16T20:06:23.384Z,6.10
2017-07-16T20:08:51.789Z,5.53
2017-07-16T20:11:19.350Z,8.40
2017-07-16T20:13:46.908Z,4.80
2017-07-16T20:16:14.477Z,5.90
2017-07-16T20:18:42.798Z,4.03
2017-07-16T20:21:10.770Z,5.20
2017-07-16T20:23:38.473Z,5.47
2017-07-16T20:26:06.007Z,5.20
2017-07-16T20:28:33.689Z,5.40
2017-07-16T20:31:01.249Z,6.03
2017-07-16T20:33:28.716Z,5.40
2017-07-16T20:35:56.277Z,11.13
2017-07-16T20:38:23.839Z,5.13
2017-07-16T20:40:52.092Z,5.00
2017-07-16T20:43:19.558Z,5.57
2017-07-16T20:45:47.118Z,4.53
2017-07-16T20:48:14.674Z,5.83
2017-07-16T20:50:42.235Z,5.83
2017-07-16T20:53:09.710Z,5.37
2017-07-16T20:55:40.058Z,6.30
2017-07-16T20:58:07.580Z,7.53
2017-07-16T21:00:35.130Z,4.87
2017-07-16T21:03:02.607Z,6.40
2017-07-16T21:05:31.228Z,4.63
2017-07-16T21:07:58.682Z,5.30
2017-07-16T21:10:26.384Z,5.53
2017-07-16T21:12:53.862Z,4.80
2017-07-16T21:15:22.108Z,5.43
2017-07-16T21:17:49.570Z,6.50
2017-07-16T21:20:17.039Z,6.13
2017-07-16T21:22:44.504Z,6.23
2017-07-16T21:25:12.755Z,9.63
2017-07-16T21:27:40.206Z,5.50
2017-07-16T21:30:07.656Z,5.87
2017-07-16T21:32:35.114Z,5.93
2017-07-16T21:35:02.577Z,5.20
2017-07-16T21:37:30.048Z,8.03
2017-07-16T21:39:57.506Z,5.40
2017-07-16T21:42:24.962Z,7.40
2017-07-16T21:44:52.507Z,7.73
2017-07-16T21:47:19.965Z,5.63
2017-07-16T21:49:49.020Z,9.00
2017-07-16T21:52:16.540Z,5.37
2017-07-16T21:54:44.815Z,5.63
2017-07-16T21:57:13.078Z,5.30
2017-07-16T21:59:40.651Z,6.03
2017-07-16T22:02:08.914Z,6.10
2017-07-16T22:04:36.470Z,12.27
2017-07-16T22:07:04.015Z,5.50
2017-07-16T22:09:31.489Z,6.00
2017-07-16T22:11:59.045Z,7.60
2017-07-16T22:14:26.507Z,6.43
2017-07-16T22:16:53.970Z,6.17
2017-07-16T22:19:22.206Z,6.10
2017-07-16T22:21:49.695Z,9.27
2017-07-16T22:24:17.418Z,6.30
2017-07-16T22:26:44.914Z,6.33
2017-07-16T22:29:12.373Z,6.50
2017-07-16T22:31:39.862Z,7.80
2017-07-16T22:34:07.341Z,5.70
2017-07-16T22:36:34.848Z,9.30
2017-07-16T22:39:02.409Z,13.67
2017-07-16T22:41:29.861Z,6.93
2017-07-16T22:43:57.327Z,7.03
2017-07-16T22:46:25.544Z,6.90
2017-07-16T22:48:53.021Z,13.30
2017-07-16T22:51:21.428Z,9.10
2017-07-16T22:53:49.664Z,7.70
2017-07-16T22:56:17.131Z,6.43
2017-07-16T22:58:44.610Z,6.87
2017-07-16T23:01:12.166Z,9.47
2017-07-16T23:03:39.633Z,9.27
2017-07-16T23:06:08.070Z,7.40
2017-07-16T23:08:35.570Z,7.00
2017-07-16T23:11:03.122Z,8.10
2017-07-16T23:13:31.133Z,9.13
2017-07-16T23:15:58.704Z,9.87
2017-07-16T23:18:26.170Z,11.27
2017-07-16T23:20:53.652Z,12.00
2017-07-16T23:23:21.120Z,8.07
2017-07-16T23:25:48.683Z,9.53
2017-07-16T23:28:16.238Z,9.33
2017-07-16T23:30:43.756Z,9.10
2017-07-16T23:33:11.229Z,10.53
2017-07-16T23:35:38.708Z,12.33
2017-07-16T23:38:06.153Z,9.77
2017-07-16T23:40:33.729Z,13.27
2017-07-16T23:43:01.296Z,12.30
2017-07-16T23:45:29.534Z,11.03
2017-07-16T23:47:57.011Z,14.00
2017-07-16T23:50:24.482Z,9.93
2017-07-16T23:52:52.042Z,11.97
2017-07-16T23:55:20.274Z,12.83
2017-07-16T23:57:47.761Z,12.27
